sensor_id;sensor_type;location;lat;lon;timestamp;temperature;humidity
59999;DHT22;45859;51.378;6.736;2023-05-10T00:01:46;13.10;99.90
59999;DHT22;45859;51.378;6.736;2023-05-10T00:04:11;13.20;99.90
59999;DHT22;45859;51.378;6.736;2023-05-10T00:06:37;13.00;99.90
59999;DHT22;45859;51.378;6.736;2023-05-10T00:09:03;13.10;99.90
59999;DHT22;45859;51.378;6.736;2023-05-10T00:11:29;13.10;99.90
59999;DHT22;45859;51.378;6.736;2023-05-10T00:13:54;13.00;99.90
59999;DHT22;45859;51.378;6.736;2023-05-10T00:16:20;13.00;99.90
59999;DHT22;45859;51.378;6.736;2023-05-10T00:18:46;13.00;99.90
59999;DHT22;45859;51.378;6.736;2023-05-10T00:21:12;13.00;99.90
59999;DHT22;45859;51.378;6.736;2023-05-10T00:23:38;13.40;99.90
59999;DHT22;45859;51.378;6.736;2023-05-10T00:26:04;13.00;99.90
59999;DHT22;45859;51.378;6.736;2023-05-10T00:28:29;13.00;99.90
59999;DHT22;45859;51.378;6.736;2023-05-10T00:30:55;13.20;99.90
59999;DHT22;45859;51.378;6.736;2023-05-10T00:33:20;12.90;99.90
59999;DHT22;45859;51.378;6.736;2023-05-10T00:35:46;13.10;99.90
59999;DHT22;45859;51.378;6.736;2023-05-10T00:38:12;12.90;99.90
59999;DHT22;45859;51.378;6.736;2023-05-10T00:40:38;12.90;99.90
59999;DHT22;45859;51.378;6.736;2023-05-10T00:43:03;13.10;99.90
59999;DHT22;45859;51.378;6.736;2023-05-10T00:45:39;12.90;99.90
59999;DHT22;45859;51.378;6.736;2023-05-10T00:48:05;13.10;99.90
59999;DHT22;45859;51.378;6.736;2023-05-10T00:50:32;12.80;99.90
59999;DHT22;45859;51.378;6.736;2023-05-10T00:52:59;12.80;99.90
59999;DHT22;45859;51.378;6.736;2023-05-10T00:55:25;13.00;99.90
59999;DHT22;45859;51.378;6.736;2023-05-10T00:57:52;12.70;99.90
59999;DHT22;45859;51.378;6.736;2023-05-10T01:00:19;12.80;99.90
59999;DHT22;45859;51.378;6.736;2023-05-10T01:02:45;12.80;99.90
59999;DHT22;45859;51.378;6.736;2023-05-10T01:05:12;12.80;99.90
59999;DHT22;45859;51.378;6.736;2023-05-10T01:07:37;12.80;99.90
59999;DHT22;45859;51.378;6.736;2023-05-10T01:10:04;12.80;99.90
59999;DHT22;45859;51.378;6.736;2023-05-10T01:12:30;12.80;99.90
59999;DHT22;45859;51.378;6.736;2023-05-10T01:14:56;12.80;99.90
59999;DHT22;45859;51.378;6.736;2023-05-10T01:17:23;13.30;99.90
59999;DHT22;45859;51.378;6.736;2023-05-10T01:19:49;12.80;99.90
59999;DHT22;45859;51.378;6.736;2023-05-10T01:36:16;12.60;99.90
59999;DHT22;45859;51.378;6.736;2023-05-10T01:38:51;12.60;99.90
59999;DHT22;45859;51.378;6.736;2023-05-10T01:41:21;12.60;99.90
59999;DHT22;45859;51.378;6.736;2023-05-10T01:44:01;12.80;99.90
59999;DHT22;45859;51.378;6.736;2023-05-10T01:46:35;12.60;99.90
59999;DHT22;45859;51.378;6.736;2023-05-10T01:49:03;12.50;99.90
59999;DHT22;45859;51.378;6.736;2023-05-10T01:51:44;13.00;99.90
59999;DHT22;45859;51.378;6.736;2023-05-10T01:54:13;12.50;99.90
59999;DHT22;45859;51.378;6.736;2023-05-10T01:56:39;12.50;99.90
59999;DHT22;45859;51.378;6.736;2023-05-10T01:59:11;12.90;99.90
59999;DHT22;45859;51.378;6.736;2023-05-10T02:01:38;12.60;99.90
59999;DHT22;45859;51.378;6.736;2023-05-10T02:04:06;12.60;99.90
59999;DHT22;45859;51.378;6.736;2023-05-10T02:06:33;12.60;99.90
59999;DHT22;45859;51.378;6.736;2023-05-10T02:09:01;12.50;99.90
59999;DHT22;45859;51.378;6.736;2023-05-10T02:11:27;13.50;99.90
59999;DHT22;45859;51.378;6.736;2023-05-10T02:13:55;12.50;99.90
59999;DHT22;45859;51.378;6.736;2023-05-10T02:16:24;12.50;99.90
59999;DHT22;45859;51.378;6.736;2023-05-10T02:18:52;12.60;99.90
59999;DHT22;45859;51.378;6.736;2023-05-10T02:21:20;13.00;99.90
59999;DHT22;45859;51.378;6.736;2023-05-10T02:23:46;12.50;99.90
59999;DHT22;45859;51.378;6.736;2023-05-10T02:26:14;13.10;99.90
59999;DHT22;45859;51.378;6.736;2023-05-10T02:28:40;12.70;99.90
59999;DHT22;45859;51.378;6.736;2023-05-10T02:31:08;12.60;99.90
59999;DHT22;45859;51.378;6.736;2023-05-10T02:33:38;12.60;99.90
59999;DHT22;45859;51.378;6.736;2023-05-10T02:36:04;12.60;99.90
59999;DHT22;45859;51.378;6.736;2023-05-10T02:38:33;12.70;99.90
59999;DHT22;45859;51.378;6.736;2023-05-10T02:41:00;12.60;99.90
59999;DHT22;45859;51.378;6.736;2023-05-10T02:43:28;12.90;99.90
59999;DHT22;45859;51.378;6.736;2023-05-10T02:45:55;13.00;99.90
59999;DHT22;45859;51.378;6.736;2023-05-10T02:48:20;12.70;99.90
59999;DHT22;45859;51.378;6.736;2023-05-10T02:50:47;12.70;99.90
59999;DHT22;45859;51.378;6.736;2023-05-10T02:53:22;12.70;99.90
59999;DHT22;45859;51.378;6.736;2023-05-10T02:55:51;12.70;99.90
59999;DHT22;45859;51.378;6.736;2023-05-10T02:58:17;12.70;99.90
59999;DHT22;45859;51.378;6.736;2023-05-10T03:00:46;12.70;99.90
59999;DHT22;45859;51.378;6.736;2023-05-10T03:03:12;12.70;99.90
59999;DHT22;45859;51.378;6.736;2023-05-10T03:05:37;11.50;99.90
59999;DHT22;45859;51.378;6.736;2023-05-10T03:08:03;12.70;99.90
59999;DHT22;45859;51.378;6.736;2023-05-10T03:10:31;12.70;99.90
59999;DHT22;45859;51.378;6.736;2023-05-10T03:13:21;13.00;99.90
59999;DHT22;45859;51.378;6.736;2023-05-10T03:16:15;12.80;99.90
59999;DHT22;45859;51.378;6.736;2023-05-10T03:18:54;12.80;99.90
59999;DHT22;45859;51.378;6.736;2023-05-10T03:21:22;12.80;99.90
59999;DHT22;45859;51.378;6.736;2023-05-10T03:24:04;13.10;99.90
59999;DHT22;45859;51.378;6.736;2023-05-10T03:26:32;12.80;99.90
59999;DHT22;45859;51.378;6.736;2023-05-10T03:28:58;12.80;99.90
59999;DHT22;45859;51.378;6.736;2023-05-10T03:31:25;12.80;99.90
59999;DHT22;45859;51.378;6.736;2023-05-10T03:33:51;12.80;99.90
59999;DHT22;45859;51.378;6.736;2023-05-10T03:36:18;12.80;99.90
59999;DHT22;45859;51.378;6.736;2023-05-10T03:38:43;12.80;99.90
59999;DHT22;45859;51.378;6.736;2023-05-10T03:41:09;12.80;99.90
59999;DHT22;45859;51.378;6.736;2023-05-10T03:43:35;12.90;99.90
59999;DHT22;45859;51.378;6.736;2023-05-10T03:46:04;12.90;99.90
59999;DHT22;45859;51.378;6.736;2023-05-10T03:48:30;12.90;99.90
59999;DHT22;45859;51.378;6.736;2023-05-10T03:50:56;12.90;99.90
59999;DHT22;45859;51.378;6.736;2023-05-10T03:53:22;12.80;99.90
59999;DHT22;45859;51.378;6.736;2023-05-10T03:55:48;12.90;99.90
59999;DHT22;45859;51.378;6.736;2023-05-10T03:58:14;13.00;99.90
59999;DHT22;45859;51.378;6.736;2023-05-10T04:00:40;12.90;99.90
59999;DHT22;45859;51.378;6.736;2023-05-10T04:03:11;13.00;99.90
59999;DHT22;45859;51.378;6.736;2023-05-10T04:05:37;13.40;99.90
59999;DHT22;45859;51.378;6.736;2023-05-10T04:08:03;13.00;99.90
59999;DHT22;45859;51.378;6.736;2023-05-10T04:10:29;13.00;99.90
59999;DHT22;45859;51.378;6.736;2023-05-10T04:12:55;13.00;99.90
59999;DHT22;45859;51.378;6.736;2023-05-10T04:15:20;13.00;99.90
59999;DHT22;45859;51.378;6.736;2023-05-10T04:17:46;13.00;99.90
59999;DHT22;45859;51.378;6.736;2023-05-10T04:20:12;13.10;99.90
59999;DHT22;45859;51.378;6.736;2023-05-10T04:22:38;13.00;99.90
59999;DHT22;45859;51.378;6.736;2023-05-10T04:25:04;13.10;99.90
59999;DHT22;45859;51.378;6.736;2023-05-10T04:27:30;13.10;99.90
59999;DHT22;45859;51.378;6.736;2023-05-10T04:29:56;13.10;99.90
59999;DHT22;45859;51.378;6.736;2023-05-10T04:32:22;13.10;99.90
59999;DHT22;45859;51.378;6.736;2023-05-10T04:34:47;13.10;99.90
59999;DHT22;45859;51.378;6.736;2023-05-10T04:37:13;13.20;99.90
59999;DHT22;45859;51.378;6.736;2023-05-10T04:39:39;13.00;99.90
59999;DHT22;45859;51.378;6.736;2023-05-10T04:42:04;13.00;99.90
59999;DHT22;45859;51.378;6.736;2023-05-10T04:44:31;14.00;99.90
59999;DHT22;45859;51.378;6.736;2023-05-10T04:46:57;13.00;99.90
59999;DHT22;45859;51.378;6.736;2023-05-10T04:49:23;13.00;99.90
59999;DHT22;45859;51.378;6.736;2023-05-10T04:51:48;13.10;99.90
59999;DHT22;45859;51.378;6.736;2023-05-10T04:54:14;13.10;99.90
59999;DHT22;45859;51.378;6.736;2023-05-10T04:56:40;13.10;99.90
59999;DHT22;45859;51.378;6.736;2023-05-10T04:59:06;13.10;99.90
59999;DHT22;45859;51.378;6.736;2023-05-10T05:01:32;13.10;99.90
59999;DHT22;45859;51.378;6.736;2023-05-10T05:03:57;13.10;99.90
59999;DHT22;45859;51.378;6.736;2023-05-10T05:06:23;13.10;99.90
59999;DHT22;45859;51.378;6.736;2023-05-10T05:08:50;13.00;99.90
59999;DHT22;45859;51.378;6.736;2023-05-10T05:11:17;13.10;99.90
59999;DHT22;45859;51.378;6.736;2023-05-10T05:13:42;13.10;99.90
59999;DHT22;45859;51.378;6.736;2023-05-10T05:16:08;13.10;99.90
59999;DHT22;45859;51.378;6.736;2023-05-10T05:18:34;13.10;99.90
59999;DHT22;45859;51.378;6.736;2023-05-10T05:21:00;13.10;99.90
59999;DHT22;45859;51.378;6.736;2023-05-10T05:23:26;13.20;99.90
59999;DHT22;45859;51.378;6.736;2023-05-10T05:25:52;13.10;99.90
59999;DHT22;45859;51.378;6.736;2023-05-10T05:28:19;13.20;99.90
59999;DHT22;45859;51.378;6.736;2023-05-10T05:30:45;13.30;99.90
59999;DHT22;45859;51.378;6.736;2023-05-10T05:33:12;13.30;99.90
59999;DHT22;45859;51.378;6.736;2023-05-10T05:35:38;13.30;99.90
59999;DHT22;45859;51.378;6.736;2023-05-10T05:38:04;13.30;99.90
59999;DHT22;45859;51.378;6.736;2023-05-10T05:40:30;13.30;99.90
59999;DHT22;45859;51.378;6.736;2023-05-10T05:42:55;13.30;99.90
59999;DHT22;45859;51.378;6.736;2023-05-10T05:45:21;13.30;99.90
59999;DHT22;45859;51.378;6.736;2023-05-10T05:47:47;13.30;99.90
59999;DHT22;45859;51.378;6.736;2023-05-10T05:50:13;14.50;99.90
59999;DHT22;45859;51.378;6.736;2023-05-10T05:52:38;13.20;99.90
59999;DHT22;45859;51.378;6.736;2023-05-10T05:55:04;13.30;99.90
59999;DHT22;45859;51.378;6.736;2023-05-10T05:57:30;13.30;99.90
59999;DHT22;45859;51.378;6.736;2023-05-10T05:59:56;13.30;99.90
59999;DHT22;45859;51.378;6.736;2023-05-10T06:02:21;13.30;99.90
59999;DHT22;45859;51.378;6.736;2023-05-10T06:04:47;13.30;99.90
59999;DHT22;45859;51.378;6.736;2023-05-10T06:07:13;13.30;99.90
59999;DHT22;45859;51.378;6.736;2023-05-10T06:09:39;13.40;99.90
59999;DHT22;45859;51.378;6.736;2023-05-10T06:12:04;13.40;99.90
59999;DHT22;45859;51.378;6.736;2023-05-10T06:14:30;13.40;99.90
59999;DHT22;45859;51.378;6.736;2023-05-10T06:16:56;13.40;99.90
59999;DHT22;45859;51.378;6.736;2023-05-10T06:19:21;13.40;99.90
59999;DHT22;45859;51.378;6.736;2023-05-10T06:21:47;13.40;99.90
59999;DHT22;45859;51.378;6.736;2023-05-10T06:24:13;13.40;99.90
59999;DHT22;45859;51.378;6.736;2023-05-10T06:26:41;13.30;99.90
59999;DHT22;45859;51.378;6.736;2023-05-10T06:29:07;13.40;99.90
59999;DHT22;45859;51.378;6.736;2023-05-10T06:31:33;13.40;99.90
59999;DHT22;45859;51.378;6.736;2023-05-10T06:33:58;13.50;99.90
59999;DHT22;45859;51.378;6.736;2023-05-10T06:36:24;13.50;99.90
59999;DHT22;45859;51.378;6.736;2023-05-10T06:38:51;13.50;99.90
59999;DHT22;45859;51.378;6.736;2023-05-10T06:41:17;13.60;99.90
59999;DHT22;45859;51.378;6.736;2023-05-10T06:43:43;13.70;99.90
59999;DHT22;45859;51.378;6.736;2023-05-10T06:46:09;13.70;99.90
59999;DHT22;45859;51.378;6.736;2023-05-10T06:48:34;13.70;99.90
59999;DHT22;45859;51.378;6.736;2023-05-10T06:51:00;13.70;99.90
59999;DHT22;45859;51.378;6.736;2023-05-10T06:53:26;13.70;99.90
59999;DHT22;45859;51.378;6.736;2023-05-10T06:55:51;13.70;99.90
59999;DHT22;45859;51.378;6.736;2023-05-10T06:58:17;13.70;99.90
59999;DHT22;45859;51.378;6.736;2023-05-10T07:00:43;13.70;99.90
59999;DHT22;45859;51.378;6.736;2023-05-10T07:03:10;13.70;99.90
59999;DHT22;45859;51.378;6.736;2023-05-10T07:05:36;13.80;99.90
59999;DHT22;45859;51.378;6.736;2023-05-10T07:08:02;13.70;99.90
59999;DHT22;45859;51.378;6.736;2023-05-10T07:10:27;13.70;99.90
59999;DHT22;45859;51.378;6.736;2023-05-10T07:12:53;13.70;99.90
59999;DHT22;45859;51.378;6.736;2023-05-10T07:15:19;13.70;99.90
59999;DHT22;45859;51.378;6.736;2023-05-10T07:17:45;13.70;99.90
59999;DHT22;45859;51.378;6.736;2023-05-10T07:20:11;13.70;99.90
59999;DHT22;45859;51.378;6.736;2023-05-10T07:22:37;13.70;99.90
59999;DHT22;45859;51.378;6.736;2023-05-10T07:25:03;13.70;99.90
59999;DHT22;45859;51.378;6.736;2023-05-10T07:27:28;13.70;99.90
59999;DHT22;45859;51.378;6.736;2023-05-10T07:29:54;13.60;99.90
59999;DHT22;45859;51.378;6.736;2023-05-10T07:32:20;13.70;99.90
59999;DHT22;45859;51.378;6.736;2023-05-10T07:34:46;13.90;99.90
59999;DHT22;45859;51.378;6.736;2023-05-10T07:37:12;14.00;99.90
59999;DHT22;45859;51.378;6.736;2023-05-10T07:39:38;14.10;99.90
59999;DHT22;45859;51.378;6.736;2023-05-10T07:42:03;14.10;99.90
59999;DHT22;45859;51.378;6.736;2023-05-10T07:44:29;14.20;99.90
59999;DHT22;45859;51.378;6.736;2023-05-10T07:46:55;14.20;99.90
59999;DHT22;45859;51.378;6.736;2023-05-10T07:49:21;14.20;99.90
59999;DHT22;45859;51.378;6.736;2023-05-10T07:51:47;14.40;99.90
59999;DHT22;45859;51.378;6.736;2023-05-10T07:54:13;14.60;99.90
59999;DHT22;45859;51.378;6.736;2023-05-10T07:56:39;14.80;99.90
59999;DHT22;45859;51.378;6.736;2023-05-10T07:59:10;15.00;99.90
59999;DHT22;45859;51.378;6.736;2023-05-10T08:01:35;15.10;99.90
59999;DHT22;45859;51.378;6.736;2023-05-10T08:04:01;15.20;99.90
59999;DHT22;45859;51.378;6.736;2023-05-10T08:06:27;15.30;99.90
59999;DHT22;45859;51.378;6.736;2023-05-10T08:08:55;15.40;99.90
59999;DHT22;45859;51.378;6.736;2023-05-10T08:11:21;15.40;99.90
59999;DHT22;45859;51.378;6.736;2023-05-10T08:13:48;15.50;99.90
59999;DHT22;45859;51.378;6.736;2023-05-10T08:16:15;15.60;99.90
59999;DHT22;45859;51.378;6.736;2023-05-10T08:18:43;15.60;99.90
59999;DHT22;45859;51.378;6.736;2023-05-10T08:21:09;15.60;99.90
59999;DHT22;45859;51.378;6.736;2023-05-10T08:23:37;15.70;99.90
59999;DHT22;45859;51.378;6.736;2023-05-10T08:26:02;15.70;99.90
59999;DHT22;45859;51.378;6.736;2023-05-10T08:28:28;15.80;99.90
59999;DHT22;45859;51.378;6.736;2023-05-10T08:30:54;16.00;99.90
59999;DHT22;45859;51.378;6.736;2023-05-10T08:33:20;16.30;99.90
59999;DHT22;45859;51.378;6.736;2023-05-10T08:35:45;16.50;99.90
59999;DHT22;45859;51.378;6.736;2023-05-10T08:38:11;16.40;99.90
59999;DHT22;45859;51.378;6.736;2023-05-10T08:40:42;16.30;99.90
59999;DHT22;45859;51.378;6.736;2023-05-10T08:43:10;16.10;99.90
59999;DHT22;45859;51.378;6.736;2023-05-10T08:45:41;16.00;99.90
59999;DHT22;45859;51.378;6.736;2023-05-10T08:48:08;15.80;99.90
59999;DHT22;45859;51.378;6.736;2023-05-10T08:50:40;15.60;99.90
59999;DHT22;45859;51.378;6.736;2023-05-10T08:53:13;15.70;99.90
59999;DHT22;45859;51.378;6.736;2023-05-10T08:55:40;15.80;99.90
59999;DHT22;45859;51.378;6.736;2023-05-10T08:58:08;15.80;99.90
59999;DHT22;45859;51.378;6.736;2023-05-10T09:00:34;15.80;99.90
59999;DHT22;45859;51.378;6.736;2023-05-10T09:03:02;15.90;99.90
59999;DHT22;45859;51.378;6.736;2023-05-10T09:05:28;15.80;99.90
59999;DHT22;45859;51.378;6.736;2023-05-10T09:07:54;15.90;99.90
59999;DHT22;45859;51.378;6.736;2023-05-10T09:10:21;15.80;99.90
59999;DHT22;45859;51.378;6.736;2023-05-10T09:12:48;15.80;99.90
59999;DHT22;45859;51.378;6.736;2023-05-10T09:15:17;15.90;99.90
59999;DHT22;45859;51.378;6.736;2023-05-10T09:17:44;15.90;99.90
59999;DHT22;45859;51.378;6.736;2023-05-10T09:20:10;15.70;99.90
59999;DHT22;45859;51.378;6.736;2023-05-10T09:22:36;15.70;99.90
59999;DHT22;45859;51.378;6.736;2023-05-10T09:25:10;15.70;99.90
59999;DHT22;45859;51.378;6.736;2023-05-10T09:27:38;15.80;99.90
59999;DHT22;45859;51.378;6.736;2023-05-10T09:30:04;16.00;99.90
59999;DHT22;45859;51.378;6.736;2023-05-10T09:32:41;16.00;99.90
59999;DHT22;45859;51.378;6.736;2023-05-10T09:35:18;15.80;99.90
59999;DHT22;45859;51.378;6.736;2023-05-10T09:37:46;15.80;99.90
59999;DHT22;45859;51.378;6.736;2023-05-10T09:40:20;15.70;99.90
59999;DHT22;45859;51.378;6.736;2023-05-10T09:45:28;15.90;99.90
59999;DHT22;45859;51.378;6.736;2023-05-10T09:47:55;16.20;99.90
59999;DHT22;45859;51.378;6.736;2023-05-10T09:50:22;16.40;99.90
59999;DHT22;45859;51.378;6.736;2023-05-10T09:55:14;16.50;99.90
59999;DHT22;45859;51.378;6.736;2023-05-10T09:57:39;16.40;99.90
59999;DHT22;45859;51.378;6.736;2023-05-10T10:00:06;16.30;99.90
59999;DHT22;45859;51.378;6.736;2023-05-10T10:02:33;16.20;99.90
59999;DHT22;45859;51.378;6.736;2023-05-10T10:05:01;16.20;99.90
59999;DHT22;45859;51.378;6.736;2023-05-10T10:07:27;16.30;99.90
59999;DHT22;45859;51.378;6.736;2023-05-10T10:09:53;16.30;99.90
59999;DHT22;45859;51.378;6.736;2023-05-10T10:12:19;16.10;99.90
59999;DHT22;45859;51.378;6.736;2023-05-10T10:14:48;16.10;99.90
59999;DHT22;45859;51.378;6.736;2023-05-10T10:17:16;16.00;99.90
59999;DHT22;45859;51.378;6.736;2023-05-10T10:19:42;16.00;99.90
59999;DHT22;45859;51.378;6.736;2023-05-10T10:22:08;16.00;99.90
59999;DHT22;45859;51.378;6.736;2023-05-10T10:24:36;15.90;99.90
59999;DHT22;45859;51.378;6.736;2023-05-10T10:27:15;15.90;99.90
59999;DHT22;45859;51.378;6.736;2023-05-10T10:35:02;15.90;99.90
59999;DHT22;45859;51.378;6.736;2023-05-10T10:37:46;16.10;99.90
59999;DHT22;45859;51.378;6.736;2023-05-10T10:40:31;16.30;99.90
59999;DHT22;45859;51.378;6.736;2023-05-10T10:42:58;16.40;99.90
59999;DHT22;45859;51.378;6.736;2023-05-10T10:45:24;16.40;99.90
59999;DHT22;45859;51.378;6.736;2023-05-10T10:48:22;16.30;99.90
59999;DHT22;45859;51.378;6.736;2023-05-10T10:50:56;16.10;99.90
59999;DHT22;45859;51.378;6.736;2023-05-10T10:53:24;15.80;99.90
59999;DHT22;45859;51.378;6.736;2023-05-10T10:56:04;15.50;99.90
59999;DHT22;45859;51.378;6.736;2023-05-10T10:58:32;15.30;99.90
59999;DHT22;45859;51.378;6.736;2023-05-10T11:01:18;15.20;99.90
59999;DHT22;45859;51.378;6.736;2023-05-10T11:06:31;15.20;99.90
59999;DHT22;45859;51.378;6.736;2023-05-10T11:08:58;15.30;99.90
59999;DHT22;45859;51.378;6.736;2023-05-10T11:11:23;15.50;99.90
59999;DHT22;45859;51.378;6.736;2023-05-10T11:13:49;15.70;99.90
59999;DHT22;45859;51.378;6.736;2023-05-10T11:16:20;16.10;99.90
59999;DHT22;45859;51.378;6.736;2023-05-10T11:19:13;16.40;99.90
59999;DHT22;45859;51.378;6.736;2023-05-10T11:21:50;16.50;99.90
59999;DHT22;45859;51.378;6.736;2023-05-10T11:24:26;16.80;99.90
59999;DHT22;45859;51.378;6.736;2023-05-10T11:26:53;16.90;99.90
59999;DHT22;45859;51.378;6.736;2023-05-10T11:29:19;17.00;99.90
59999;DHT22;45859;51.378;6.736;2023-05-10T11:31:46;17.00;99.90
59999;DHT22;45859;51.378;6.736;2023-05-10T11:34:26;17.20;99.90
59999;DHT22;45859;51.378;6.736;2023-05-10T11:36:54;17.10;99.90
59999;DHT22;45859;51.378;6.736;2023-05-10T11:39:21;17.00;99.90
59999;DHT22;45859;51.378;6.736;2023-05-10T11:41:50;17.00;99.90
59999;DHT22;45859;51.378;6.736;2023-05-10T11:44:16;16.80;99.90
59999;DHT22;45859;51.378;6.736;2023-05-10T11:46:44;16.70;99.90
59999;DHT22;45859;51.378;6.736;2023-05-10T11:49:11;16.40;99.90
59999;DHT22;45859;51.378;6.736;2023-05-10T11:51:37;16.30;99.90
59999;DHT22;45859;51.378;6.736;2023-05-10T11:54:07;16.50;99.90
59999;DHT22;45859;51.378;6.736;2023-05-10T11:56:40;16.50;99.90
59999;DHT22;45859;51.378;6.736;2023-05-10T11:59:06;16.60;99.90
59999;DHT22;45859;51.378;6.736;2023-05-10T12:01:33;16.60;99.90
59999;DHT22;45859;51.378;6.736;2023-05-10T12:04:00;16.30;99.90
59999;DHT22;45859;51.378;6.736;2023-05-10T12:06:28;17.70;99.90
59999;DHT22;45859;51.378;6.736;2023-05-10T12:08:54;16.60;99.90
59999;DHT22;45859;51.378;6.736;2023-05-10T12:11:24;16.60;99.90
59999;DHT22;45859;51.378;6.736;2023-05-10T12:13:50;16.90;99.90
59999;DHT22;45859;51.378;6.736;2023-05-10T12:18:44;17.40;99.90
59999;DHT22;45859;51.378;6.736;2023-05-10T12:21:13;17.50;99.90
59999;DHT22;45859;51.378;6.736;2023-05-10T12:23:41;17.60;99.90
59999;DHT22;45859;51.378;6.736;2023-05-10T12:26:09;17.90;99.90
59999;DHT22;45859;51.378;6.736;2023-05-10T12:28:36;18.10;99.90
59999;DHT22;45859;51.378;6.736;2023-05-10T12:31:02;18.20;99.90
59999;DHT22;45859;51.378;6.736;2023-05-10T12:33:39;18.50;99.90
59999;DHT22;45859;51.378;6.736;2023-05-10T12:36:22;18.80;99.90
59999;DHT22;45859;51.378;6.736;2023-05-10T12:38:48;18.90;99.90
59999;DHT22;45859;51.378;6.736;2023-05-10T12:41:18;19.00;99.90
59999;DHT22;45859;51.378;6.736;2023-05-10T12:43:44;19.30;99.90
59999;DHT22;45859;51.378;6.736;2023-05-10T12:46:17;19.30;99.90
59999;DHT22;45859;51.378;6.736;2023-05-10T12:48:44;19.30;99.90
59999;DHT22;45859;51.378;6.736;2023-05-10T12:51:11;19.40;99.90
59999;DHT22;45859;51.378;6.736;2023-05-10T12:53:41;19.50;99.90
59999;DHT22;45859;51.378;6.736;2023-05-10T12:56:07;19.50;99.90
59999;DHT22;45859;51.378;6.736;2023-05-10T12:58:33;19.40;99.90
59999;DHT22;45859;51.378;6.736;2023-05-10T13:00:59;19.30;99.90
59999;DHT22;45859;51.378;6.736;2023-05-10T13:03:25;19.30;99.90
59999;DHT22;45859;51.378;6.736;2023-05-10T13:05:51;19.20;99.90
59999;DHT22;45859;51.378;6.736;2023-05-10T13:08:17;18.90;99.90
59999;DHT22;45859;51.378;6.736;2023-05-10T13:10:42;19.00;99.90
59999;DHT22;45859;51.378;6.736;2023-05-10T13:13:08;19.10;99.90
59999;DHT22;45859;51.378;6.736;2023-05-10T13:15:34;19.20;99.90
59999;DHT22;45859;51.378;6.736;2023-05-10T13:18:00;19.60;99.90
59999;DHT22;45859;51.378;6.736;2023-05-10T13:20:26;19.60;99.90
59999;DHT22;45859;51.378;6.736;2023-05-10T13:22:52;19.70;99.90
59999;DHT22;45859;51.378;6.736;2023-05-10T13:25:18;19.70;99.90
59999;DHT22;45859;51.378;6.736;2023-05-10T13:27:44;19.50;99.90
59999;DHT22;45859;51.378;6.736;2023-05-10T13:30:10;19.40;99.90
59999;DHT22;45859;51.378;6.736;2023-05-10T13:32:36;19.50;99.90
59999;DHT22;45859;51.378;6.736;2023-05-10T13:35:02;19.30;99.90
59999;DHT22;45859;51.378;6.736;2023-05-10T13:37:29;19.40;99.90
59999;DHT22;45859;51.378;6.736;2023-05-10T13:39:55;19.50;99.90
59999;DHT22;45859;51.378;6.736;2023-05-10T13:42:22;19.30;99.90
59999;DHT22;45859;51.378;6.736;2023-05-10T13:44:48;19.30;99.90
59999;DHT22;45859;51.378;6.736;2023-05-10T13:47:14;19.20;99.90
59999;DHT22;45859;51.378;6.736;2023-05-10T13:49:40;19.30;99.90
59999;DHT22;45859;51.378;6.736;2023-05-10T13:52:06;19.00;99.90
59999;DHT22;45859;51.378;6.736;2023-05-10T13:54:33;18.80;99.90
59999;DHT22;45859;51.378;6.736;2023-05-10T13:56:59;18.90;99.90
59999;DHT22;45859;51.378;6.736;2023-05-10T13:59:25;18.80;99.90
59999;DHT22;45859;51.378;6.736;2023-05-10T14:01:51;19.00;99.90
59999;DHT22;45859;51.378;6.736;2023-05-10T14:04:16;19.00;99.90
59999;DHT22;45859;51.378;6.736;2023-05-10T14:06:42;19.10;99.90
59999;DHT22;45859;51.378;6.736;2023-05-10T14:09:08;19.50;99.90
59999;DHT22;45859;51.378;6.736;2023-05-10T14:11:34;19.50;99.90
59999;DHT22;45859;51.378;6.736;2023-05-10T14:13:59;19.50;99.90
59999;DHT22;45859;51.378;6.736;2023-05-10T14:16:25;19.40;99.90
59999;DHT22;45859;51.378;6.736;2023-05-10T14:18:51;19.30;99.90
59999;DHT22;45859;51.378;6.736;2023-05-10T14:21:17;19.20;99.90
59999;DHT22;45859;51.378;6.736;2023-05-10T14:23:42;19.00;99.90
59999;DHT22;45859;51.378;6.736;2023-05-10T14:26:08;18.90;99.90
59999;DHT22;45859;51.378;6.736;2023-05-10T14:28:34;18.80;99.90
59999;DHT22;45859;51.378;6.736;2023-05-10T14:31:00;18.80;99.90
59999;DHT22;45859;51.378;6.736;2023-05-10T14:33:25;18.70;99.90
59999;DHT22;45859;51.378;6.736;2023-05-10T14:35:51;18.80;99.90
59999;DHT22;45859;51.378;6.736;2023-05-10T14:38:17;18.90;99.90
59999;DHT22;45859;51.378;6.736;2023-05-10T14:40:43;19.00;99.90
59999;DHT22;45859;51.378;6.736;2023-05-10T14:43:09;19.00;99.90
59999;DHT22;45859;51.378;6.736;2023-05-10T14:45:34;19.20;99.90
59999;DHT22;45859;51.378;6.736;2023-05-10T14:48:00;19.20;99.90
59999;DHT22;45859;51.378;6.736;2023-05-10T14:50:30;19.30;99.90
59999;DHT22;45859;51.378;6.736;2023-05-10T14:52:56;19.30;99.90
59999;DHT22;45859;51.378;6.736;2023-05-10T14:55:22;19.20;99.90
59999;DHT22;45859;51.378;6.736;2023-05-10T14:57:47;19.30;99.90
59999;DHT22;45859;51.378;6.736;2023-05-10T15:00:15;19.00;99.90
59999;DHT22;45859;51.378;6.736;2023-05-10T15:02:41;19.10;99.90
59999;DHT22;45859;51.378;6.736;2023-05-10T15:05:07;18.90;99.90
59999;DHT22;45859;51.378;6.736;2023-05-10T15:07:33;18.60;99.90
59999;DHT22;45859;51.378;6.736;2023-05-10T15:09:58;18.30;99.90
59999;DHT22;45859;51.378;6.736;2023-05-10T15:12:24;18.00;99.90
59999;DHT22;45859;51.378;6.736;2023-05-10T15:14:50;17.90;99.90
59999;DHT22;45859;51.378;6.736;2023-05-10T15:17:15;17.80;99.90
59999;DHT22;45859;51.378;6.736;2023-05-10T15:19:42;17.70;99.90
59999;DHT22;45859;51.378;6.736;2023-05-10T15:22:08;17.80;99.90
59999;DHT22;45859;51.378;6.736;2023-05-10T15:24:34;17.80;99.90
59999;DHT22;45859;51.378;6.736;2023-05-10T15:26:59;17.90;99.90
59999;DHT22;45859;51.378;6.736;2023-05-10T15:29:26;17.90;99.90
59999;DHT22;45859;51.378;6.736;2023-05-10T15:31:52;17.60;99.90
59999;DHT22;45859;51.378;6.736;2023-05-10T15:34:18;17.50;99.90
59999;DHT22;45859;51.378;6.736;2023-05-10T15:36:44;17.30;99.90
59999;DHT22;45859;51.378;6.736;2023-05-10T15:39:10;17.10;99.90
59999;DHT22;45859;51.378;6.736;2023-05-10T15:41:36;16.90;99.90
59999;DHT22;45859;51.378;6.736;2023-05-10T15:44:02;16.70;99.90
59999;DHT22;45859;51.378;6.736;2023-05-10T15:46:28;16.50;99.90
59999;DHT22;45859;51.378;6.736;2023-05-10T15:48:54;16.30;99.90
59999;DHT22;45859;51.378;6.736;2023-05-10T15:51:20;16.10;99.90
59999;DHT22;45859;51.378;6.736;2023-05-10T15:53:46;15.90;99.90
59999;DHT22;45859;51.378;6.736;2023-05-10T15:56:12;15.90;99.90
59999;DHT22;45859;51.378;6.736;2023-05-10T15:58:39;15.70;99.90
59999;DHT22;45859;51.378;6.736;2023-05-10T16:01:05;15.30;99.90